Time;durP1;ratioP1;P1;durP2;ratioP2;P2;SDS_P1;SDS_P2;PMS_P1;PMS_P2;Temp;Humidity;BMP_temperature;BMP_pressure;BME280_temperature;BME280_humidity;BME280_pressure;Samples;Min_cycle;Max_cycle;Signal;HPM_P1;HPM_P2
2022/04/28 00:02:17;;;;;;;7.15;5.38;;;10.30;93.10;;;;;;5068234;28;20043;-80
2022/04/28 00:04:42;;;;;;;10.50;5.53;;;10.30;93.30;;;;;;5074220;28;20041;-79
2022/04/28 00:07:08;;;;;;;6.50;5.40;;;10.30;93.30;;;;;;5071615;28;20032;-79
2022/04/28 00:09:33;;;;;;;5.88;4.80;;;10.30;93.60;;;;;;5065237;28;20035;-79
2022/04/28 00:11:59;;;;;;;12.15;6.60;;;10.20;93.60;;;;;;5063116;28;20031;-79
2022/04/28 00:14:25;;;;;;;7.80;6.75;;;10.20;93.60;;;;;;5077090;28;20112;-80
2022/04/28 00:16:50;;;;;;;11.75;6.03;;;10.10;93.80;;;;;;5058445;28;20041;-79
2022/04/28 00:19:16;;;;;;;6.82;5.97;;;10.10;93.80;;;;;;5066925;28;20036;-79
2022/04/28 00:21:41;;;;;;;8.95;7.07;;;10.10;93.90;;;;;;5067269;28;20025;-80
2022/04/28 00:24:07;;;;;;;8.50;6.32;;;10.10;94.00;;;;;;5074448;28;20411;-79
2022/04/28 00:26:33;;;;;;;8.70;6.97;;;10.10;94.30;;;;;;5075513;28;20028;-79
2022/04/28 00:28:58;;;;;;;15.73;7.65;;;10.00;94.10;;;;;;5074727;28;20377;-79
2022/04/28 00:31:24;;;;;;;10.10;7.07;;;10.00;94.10;;;;;;5073537;28;20040;-79
2022/04/28 00:33:49;;;;;;;11.18;6.95;;;10.00;94.20;;;;;;5092407;28;20053;-80
2022/04/28 00:36:15;;;;;;;8.73;6.60;;;10.00;94.30;;;;;;5076548;28;20047;-80
2022/04/28 00:38:41;;;;;;;8.25;6.70;;;10.00;94.40;;;;;;5071649;28;20067;-80
2022/04/28 00:41:06;;;;;;;8.95;6.25;;;9.90;94.40;;;;;;5064735;28;20081;-79
2022/04/28 00:43:33;;;;;;;8.82;7.05;;;10.00;94.40;;;;;;5066866;28;20021;-80
2022/04/28 00:45:59;;;;;;;11.20;6.68;;;9.90;94.50;;;;;;5070756;28;20452;-80
2022/04/28 00:51:12;;;;;;;12.55;6.72;;;9.90;94.60;;;;;;5063024;28;20020;-79
2022/04/28 00:53:49;;;;;;;9.75;7.05;;;9.90;94.60;;;;;;5048241;28;20052;-79
2022/04/28 00:56:15;;;;;;;9.63;6.45;;;9.90;94.70;;;;;;5050666;28;20024;-79
2022/04/28 00:58:41;;;;;;;8.45;6.70;;;9.90;94.80;;;;;;5051946;28;20505;-79
2022/04/28 01:01:08;;;;;;;11.27;7.57;;;9.90;94.80;;;;;;5061434;28;20031;-79
2022/04/28 01:03:34;;;;;;;11.48;6.97;;;9.90;94.90;;;;;;5068218;28;20058;-79
2022/04/28 01:06:01;;;;;;;8.18;5.90;;;9.80;94.80;;;;;;5056677;28;20028;-79
2022/04/28 01:08:27;;;;;;;12.52;7.28;;;9.80;94.80;;;;;;5062732;28;20119;-80
2022/04/28 01:10:53;;;;;;;12.40;7.38;;;9.80;94.80;;;;;;5055066;28;20039;-80
2022/04/28 01:13:19;;;;;;;9.02;6.75;;;9.70;95.00;;;;;;5076531;28;20453;-79
2022/04/28 01:15:46;;;;;;;9.43;6.50;;;9.70;95.00;;;;;;5068122;28;20489;-79
2022/04/28 01:18:12;;;;;;;10.20;7.45;;;9.70;95.10;;;;;;5050769;28;20037;-79
2022/04/28 01:20:38;;;;;;;8.43;6.60;;;9.70;95.10;;;;;;5063552;28;20031;-79
2022/04/28 01:23:04;;;;;;;8.75;6.68;;;9.70;95.20;;;;;;5067110;28;20029;-79
2022/04/28 01:25:30;;;;;;;12.65;6.38;;;9.60;95.10;;;;;;5076016;28;20348;-79
2022/04/28 01:27:56;;;;;;;10.65;6.50;;;9.70;95.10;;;;;;5070737;28;20180;-79
2022/04/28 01:30:22;;;;;;;10.10;6.78;;;9.60;95.10;;;;;;5082070;28;20028;-79
2022/04/28 01:32:47;;;;;;;9.60;6.35;;;9.60;95.20;;;;;;5077237;28;20028;-79
2022/04/28 01:35:13;;;;;;;9.98;6.93;;;9.60;95.10;;;;;;5072317;28;20043;-80
2022/04/28 01:37:38;;;;;;;11.25;7.15;;;9.60;95.10;;;;;;5067255;28;20040;-80
2022/04/28 01:40:08;;;;;;;8.25;6.00;;;9.60;95.00;;;;;;5063725;28;20013;-79
2022/04/28 01:42:34;;;;;;;10.20;7.15;;;9.60;95.00;;;;;;5075532;28;20111;-80
2022/04/28 01:44:59;;;;;;;7.40;6.55;;;9.60;94.90;;;;;;5069317;28;20108;-79
2022/04/28 01:47:25;;;;;;;9.57;6.80;;;9.60;94.90;;;;;;5067808;28;20036;-79
2022/04/28 01:49:50;;;;;;;10.60;7.07;;;9.50;94.80;;;;;;5058679;28;20052;-79
2022/04/28 01:55:00;;;;;;;9.82;6.95;;;9.50;94.80;;;;;;5063514;28;20031;-79
2022/04/28 01:57:27;;;;;;;15.32;8.52;;;9.50;94.70;;;;;;5070132;28;20032;-79
2022/04/28 01:59:53;;;;;;;10.40;8.23;;;9.50;94.70;;;;;;5057365;28;20067;-79
2022/04/28 02:02:20;;;;;;;8.80;7.25;;;9.50;94.70;;;;;;5055503;28;20044;-79
2022/04/28 02:04:45;;;;;;;13.43;8.10;;;9.50;94.80;;;;;;5056750;28;20500;-79
2022/04/28 02:07:13;;;;;;;8.57;7.28;;;9.50;94.70;;;;;;5071313;28;20017;-79
2022/04/28 02:09:40;;;;;;;10.63;8.38;;;9.50;94.70;;;;;;5062663;28;20025;-79
2022/04/28 02:12:05;;;;;;;12.15;8.90;;;9.50;94.60;;;;;;5073384;28;20038;-80
2022/04/28 02:14:31;;;;;;;12.55;8.23;;;9.60;94.60;;;;;;5063030;28;20033;-79
2022/04/28 02:16:57;;;;;;;11.07;8.38;;;9.60;94.60;;;;;;5059985;28;20036;-79
2022/04/28 02:19:23;;;;;;;11.73;9.38;;;9.60;94.50;;;;;;5066223;28;20043;-80
2022/04/28 02:21:48;;;;;;;13.70;9.55;;;9.70;94.50;;;;;;5062130;28;20086;-79
2022/04/28 02:24:14;;;;;;;11.45;8.85;;;9.70;94.40;;;;;;5067169;28;20469;-79
2022/04/28 02:26:39;;;;;;;12.57;9.18;;;9.80;94.30;;;;;;5056551;28;20051;-79
2022/04/28 02:29:05;;;;;;;17.02;8.90;;;9.80;94.30;;;;;;5065716;28;20036;-79
2022/04/28 02:31:30;;;;;;;16.42;8.93;;;9.80;94.30;;;;;;5071176;28;20028;-79
2022/04/28 02:33:56;;;;;;;13.90;8.70;;;9.80;94.30;;;;;;5063622;28;20031;-79
2022/04/28 02:36:21;;;;;;;12.63;9.07;;;9.80;94.30;;;;;;5072504;28;20106;-79
2022/04/28 02:38:47;;;;;;;11.43;9.35;;;9.80;94.20;;;;;;5052934;28;20452;-79
2022/04/28 02:41:19;;;;;;;13.80;9.23;;;9.80;94.20;;;;;;5070357;28;20028;-79
2022/04/28 02:43:45;;;;;;;10.80;5.95;;;9.90;94.20;;;;;;5072088;28;20066;-79
2022/04/28 02:46:10;;;;;;;12.98;8.35;;;9.90;94.20;;;;;;5061652;28;20033;-79
2022/04/28 02:48:36;;;;;;;11.35;7.82;;;9.90;94.10;;;;;;5063417;28;20025;-79
2022/04/28 02:51:01;;;;;;;13.68;9.23;;;9.90;94.20;;;;;;5058877;28;20103;-79
2022/04/28 02:53:27;;;;;;;16.42;10.30;;;9.90;94.20;;;;;;5056714;28;20425;-79
2022/04/28 02:55:52;;;;;;;12.15;8.25;;;9.90;94.20;;;;;;5068407;28;20049;-79
2022/04/28 02:58:18;;;;;;;13.38;8.95;;;9.90;94.10;;;;;;5067907;28;20847;-78
2022/04/28 03:00:43;;;;;;;11.70;8.93;;;9.80;94.00;;;;;;5058183;28;20453;-79
2022/04/28 03:03:10;;;;;;;13.88;8.80;;;9.80;94.10;;;;;;5070734;28;20024;-78
2022/04/28 03:10:46;;;;;;;11.27;8.13;;;9.80;94.10;;;;;;5061344;28;20025;-79
2022/04/28 03:11:05;;;;;;;10.85;7.35;;;9.70;94.30;;;;;;5062556;28;20112;-78
2022/04/28 03:13:32;;;;;;;14.15;8.68;;;9.70;94.10;;;;;;5068301;28;20108;-79
2022/04/28 03:15:57;;;;;;;12.52;7.63;;;9.70;94.20;;;;;;5061623;28;20087;-79
2022/04/28 03:18:23;;;;;;;12.90;7.57;;;9.80;94.10;;;;;;5062720;28;20033;-79
2022/04/28 03:20:48;;;;;;;12.57;7.55;;;9.70;94.00;;;;;;5052393;28;20029;-79
2022/04/28 03:23:14;;;;;;;12.88;7.80;;;9.80;94.00;;;;;;5063432;28;20111;-78
2022/04/28 03:25:40;;;;;;;18.02;7.93;;;9.80;94.00;;;;;;5071239;28;20111;-78
2022/04/28 03:28:07;;;;;;;13.13;8.32;;;9.70;93.90;;;;;;5080668;28;20103;-78
2022/04/28 03:30:33;;;;;;;11.02;7.60;;;9.70;94.00;;;;;;5074581;28;20024;-78
2022/04/28 03:33:00;;;;;;;11.10;8.00;;;9.70;94.00;;;;;;5080820;28;20123;-78
2022/04/28 03:35:26;;;;;;;11.77;7.50;;;9.60;94.00;;;;;;5060495;28;20103;-79
2022/04/28 03:37:51;;;;;;;13.65;8.10;;;9.70;94.00;;;;;;5065110;28;20139;-78
2022/04/28 03:40:17;;;;;;;15.45;7.97;;;9.70;94.10;;;;;;5061847;28;20036;-78
2022/04/28 03:42:44;;;;;;;13.30;8.02;;;9.70;94.10;;;;;;5074932;28;20028;-78
2022/04/28 03:45:10;;;;;;;11.98;7.97;;;9.60;94.00;;;;;;5052177;28;20021;-77
2022/04/28 03:47:36;;;;;;;12.45;7.93;;;9.60;94.00;;;;;;5051976;28;20036;-78
2022/04/28 03:50:06;;;;;;;11.55;8.20;;;9.60;94.10;;;;;;5053377;28;20024;-78
2022/04/28 03:52:31;;;;;;;10.23;7.43;;;9.60;94.10;;;;;;5066616;28;20037;-78
2022/04/28 03:54:57;;;;;;;10.43;7.97;;;9.60;94.10;;;;;;5058162;28;20093;-78
2022/04/28 03:57:22;;;;;;;13.40;7.68;;;9.60;94.10;;;;;;5055107;28;20066;-77
2022/04/28 03:59:48;;;;;;;16.27;7.95;;;9.60;94.40;;;;;;5052451;28;20029;-78
2022/04/28 04:02:13;;;;;;;10.98;8.07;;;9.60;94.20;;;;;;5053072;28;20023;-78
2022/04/28 04:04:39;;;;;;;11.40;7.82;;;9.70;94.20;;;;;;5052917;28;20071;-80
2022/04/28 04:07:05;;;;;;;11.57;8.02;;;9.70;94.20;;;;;;5050136;28;20553;-80
2022/04/28 04:09:31;;;;;;;12.45;7.82;;;9.70;94.20;;;;;;5056985;28;20056;-80
2022/04/28 04:11:56;;;;;;;13.15;7.90;;;9.70;94.20;;;;;;5052825;28;20099;-79
2022/04/28 04:14:22;;;;;;;11.82;7.63;;;9.80;94.20;;;;;;5056260;28;20020;-80
2022/04/28 04:16:47;;;;;;;12.57;7.93;;;9.80;94.20;;;;;;5079538;28;20432;-79
2022/04/28 04:19:13;;;;;;;15.85;8.70;;;9.80;94.10;;;;;;5058708;28;20028;-80
2022/04/28 04:21:39;;;;;;;10.85;8.15;;;9.90;94.10;;;;;;5063654;28;20028;-79
2022/04/28 04:24:05;;;;;;;12.88;8.15;;;9.90;94.00;;;;;;5057637;28;20118;-80
2022/04/28 04:26:31;;;;;;;8.50;6.80;;;10.00;94.00;;;;;;5051550;28;20036;-79
2022/04/28 04:28:56;;;;;;;12.15;8.02;;;10.00;93.90;;;;;;5052568;28;20029;-80
2022/04/28 04:34:06;;;;;;;15.38;8.85;;;10.10;94.10;;;;;;5053599;28;20039;-79
2022/04/28 04:36:31;;;;;;;10.68;7.75;;;10.10;93.90;;;;;;5049559;28;20447;-80
2022/04/28 04:38:57;;;;;;;12.02;8.82;;;10.10;94.00;;;;;;5052113;28;20740;-79
2022/04/28 04:41:22;;;;;;;11.98;7.32;;;10.10;93.90;;;;;;5053122;28;20024;-79
2022/04/28 04:43:48;;;;;;;14.25;7.32;;;10.10;93.90;;;;;;5053278;28;20041;-79
2022/04/28 04:46:13;;;;;;;9.68;7.35;;;10.10;93.90;;;;;;5065527;28;20025;-79
2022/04/28 04:48:39;;;;;;;10.30;6.70;;;10.10;94.10;;;;;;5062184;28;20087;-80
2022/04/28 04:51:04;;;;;;;12.30;7.72;;;10.10;94.00;;;;;;5064783;28;20390;-80
2022/04/28 04:53:30;;;;;;;12.45;7.43;;;10.10;94.10;;;;;;5043012;28;20052;-79
2022/04/28 04:55:55;;;;;;;14.98;7.35;;;10.10;94.00;;;;;;5063146;28;20103;-79
2022/04/28 04:58:21;;;;;;;8.63;6.90;;;10.10;94.00;;;;;;5068158;28;20078;-79
2022/04/28 05:00:46;;;;;;;14.15;8.77;;;10.10;93.90;;;;;;5058818;28;20347;-79
2022/04/28 05:03:13;;;;;;;20.60;8.23;;;10.00;94.10;;;;;;5053069;28;20023;-79
2022/04/28 05:05:39;;;;;;;11.00;6.72;;;10.00;94.00;;;;;;5056148;28;21775;-79
2022/04/28 05:08:04;;;;;;;10.02;7.70;;;10.00;94.00;;;;;;5058363;28;20021;-78
2022/04/28 05:10:30;;;;;;;11.77;7.60;;;10.00;94.20;;;;;;5054263;28;20024;-78
2022/04/28 05:12:56;;;;;;;11.35;7.25;;;9.90;94.20;;;;;;5054497;28;20035;-78
2022/04/28 05:15:22;;;;;;;11.23;7.45;;;9.90;94.10;;;;;;5061140;28;20077;-78
2022/04/28 05:17:47;;;;;;;15.05;7.68;;;9.90;94.30;;;;;;5065992;28;20529;-78
2022/04/28 05:20:13;;;;;;;10.43;6.57;;;10.00;94.50;;;;;;5051797;28;20428;-78
2022/04/28 05:22:39;;;;;;;8.77;7.15;;;10.00;94.10;;;;;;5068730;28;20024;-78
2022/04/28 05:25:04;;;;;;;11.20;7.00;;;10.00;94.10;;;;;;5054508;28;20078;-78
2022/04/28 05:27:30;;;;;;;10.43;7.32;;;10.10;94.10;;;;;;5049551;28;20128;-78
2022/04/28 05:29:56;;;;;;;11.00;6.95;;;10.10;93.80;;;;;;5054967;28;20036;-78
2022/04/28 05:32:21;;;;;;;8.38;6.55;;;10.20;93.70;;;;;;5070571;28;20393;-79
2022/04/28 05:34:47;;;;;;;15.20;7.20;;;10.30;93.70;;;;;;5072688;28;20035;-77
2022/04/28 05:37:14;;;;;;;9.52;6.60;;;10.40;93.40;;;;;;5065830;28;20039;-78
2022/04/28 05:39:41;;;;;;;11.73;7.85;;;10.40;93.40;;;;;;5066807;28;20094;-78
2022/04/28 05:42:07;;;;;;;9.23;6.25;;;10.50;93.50;;;;;;5068401;28;20037;-78
2022/04/28 05:47:26;;;;;;;13.93;6.13;;;10.60;93.20;;;;;;5052908;28;20040;-78
2022/04/28 05:49:53;;;;;;;8.50;6.82;;;10.50;93.20;;;;;;5066193;28;20609;-78
2022/04/28 05:52:18;;;;;;;12.90;6.90;;;10.60;93.40;;;;;;5067212;28;20391;-78
2022/04/28 05:54:44;;;;;;;16.95;7.45;;;10.60;93.30;;;;;;5061882;28;20036;-78
2022/04/28 05:57:11;;;;;;;12.27;6.65;;;10.60;93.30;;;;;;5066048;28;20036;-78
2022/04/28 05:59:37;;;;;;;7.88;6.30;;;10.70;93.30;;;;;;5066290;28;20471;-78
2022/04/28 06:02:03;;;;;;;12.48;6.68;;;10.70;93.10;;;;;;5056294;28;20067;-78
2022/04/28 06:04:29;;;;;;;12.30;6.82;;;10.70;93.10;;;;;;5064375;28;20034;-78
2022/04/28 06:06:54;;;;;;;10.13;6.20;;;10.70;93.20;;;;;;5064851;28;20024;-78
2022/04/28 06:09:20;;;;;;;9.85;7.03;;;10.80;92.90;;;;;;5058947;28;20028;-78
2022/04/28 06:11:45;;;;;;;10.65;7.10;;;10.90;92.90;;;;;;5067982;28;20048;-78
2022/04/28 06:14:11;;;;;;;11.43;6.32;;;10.90;92.90;;;;;;5057489;28;20032;-78
2022/04/28 06:16:37;;;;;;;10.70;7.07;;;11.00;92.60;;;;;;5066296;28;20086;-78
2022/04/28 06:19:02;;;;;;;11.70;5.97;;;10.90;92.30;;;;;;5068765;28;20504;-80
2022/04/28 06:21:28;;;;;;;10.15;6.65;;;10.90;92.80;;;;;;5064620;28;20063;-80
2022/04/28 06:23:53;;;;;;;7.93;6.15;;;10.90;92.60;;;;;;5057407;28;20116;-80
2022/04/28 06:26:19;;;;;;;7.90;6.18;;;11.00;92.60;;;;;;5067420;28;20051;-78
2022/04/28 06:28:44;;;;;;;9.50;5.88;;;11.00;92.40;;;;;;5067982;28;20091;-77
2022/04/28 06:31:10;;;;;;;10.00;5.97;;;11.00;92.40;;;;;;5064838;28;20033;-78
2022/04/28 06:33:40;;;;;;;11.68;6.32;;;11.00;92.40;;;;;;5062259;28;20040;-78
2022/04/28 06:36:06;;;;;;;11.60;6.50;;;11.00;92.80;;;;;;5058527;28;20029;-78
2022/04/28 06:38:31;;;;;;;12.40;6.03;;;11.10;92.60;;;;;;5054850;28;20074;-78
2022/04/28 06:40:57;;;;;;;10.60;6.60;;;11.20;92.70;;;;;;5065124;28;20040;-78
2022/04/28 06:43:22;;;;;;;9.15;6.30;;;11.30;92.40;;;;;;5062673;28;20025;-78
2022/04/28 06:48:32;;;;;;;9.85;7.10;;;11.40;92.50;;;;;;5062297;28;20416;-78
2022/04/28 06:50:57;;;;;;;14.18;7.15;;;11.40;92.50;;;;;;5051600;28;20028;-78
2022/04/28 06:53:23;;;;;;;9.43;6.28;;;11.50;92.30;;;;;;5063747;28;20024;-78
2022/04/28 06:55:48;;;;;;;8.90;6.53;;;11.60;92.00;;;;;;5070717;28;20032;-78
2022/04/28 06:58:15;;;;;;;12.52;5.60;;;11.70;91.90;;;;;;5070512;28;20141;-78
2022/04/28 07:00:40;;;;;;;15.15;6.88;;;11.80;91.30;;;;;;5068131;28;20020;-78
2022/04/28 07:03:06;;;;;;;10.73;5.93;;;11.90;91.30;;;;;;5053311;28;20040;-79
2022/04/28 07:05:33;;;;;;;10.60;6.47;;;12.10;91.50;;;;;;5073368;28;20365;-78
2022/04/28 07:07:58;;;;;;;7.45;5.82;;;12.20;91.30;;;;;;5091243;28;20020;-78
2022/04/28 07:10:24;;;;;;;10.50;5.72;;;12.20;91.00;;;;;;5089981;28;20659;-78
2022/04/28 07:12:50;;;;;;;9.10;6.35;;;12.30;91.10;;;;;;5091273;28;20016;-79
2022/04/28 07:15:15;;;;;;;7.82;6.07;;;12.30;91.00;;;;;;5069137;28;20084;-79
2022/04/28 07:17:41;;;;;;;8.45;6.30;;;12.30;91.20;;;;;;5070187;28;20028;-78
2022/04/28 07:20:07;;;;;;;9.00;5.70;;;12.30;91.20;;;;;;5071047;28;20036;-79
2022/04/28 07:22:33;;;;;;;9.85;6.68;;;12.30;91.30;;;;;;5070810;28;20025;-79
2022/04/28 07:24:58;;;;;;;8.52;5.90;;;12.30;91.40;;;;;;5069901;28;20032;-79
2022/04/28 07:27:24;;;;;;;12.32;6.50;;;12.30;91.60;;;;;;5069607;28;20032;-78
2022/04/28 07:29:50;;;;;;;9.73;5.82;;;12.50;91.40;;;;;;5069103;28;20103;-79
2022/04/28 07:32:16;;;;;;;15.30;6.90;;;12.60;90.70;;;;;;5070823;28;20029;-79
2022/04/28 07:34:41;;;;;;;9.88;5.13;;;12.80;90.70;;;;;;5070052;28;20091;-77
2022/04/28 07:37:07;;;;;;;11.85;6.32;;;12.90;90.70;;;;;;5069057;28;20025;-77
2022/04/28 07:39:32;;;;;;;8.18;5.65;;;13.10;90.60;;;;;;5070748;28;20662;-76
2022/04/28 07:41:57;;;;;;;9.38;6.50;;;13.40;90.40;;;;;;5070458;28;20036;-77
2022/04/28 07:44:23;;;;;;;8.50;5.97;;;13.50;90.20;;;;;;5069570;28;20035;-79
2022/04/28 07:46:48;;;;;;;8.88;6.22;;;13.50;90.00;;;;;;5066982;28;20694;-78
2022/04/28 07:49:14;;;;;;;8.45;6.07;;;13.50;90.20;;;;;;5059551;28;20021;-80
2022/04/28 07:51:39;;;;;;;9.23;5.57;;;13.50;90.30;;;;;;5063477;28;20028;-80
2022/04/28 07:54:05;;;;;;;8.80;6.40;;;13.60;90.30;;;;;;5058940;28;20127;-80
2022/04/28 07:56:31;;;;;;;9.50;6.25;;;13.80;90.50;;;;;;5062080;28;20039;-80
2022/04/28 07:58:56;;;;;;;9.73;5.72;;;14.00;89.40;;;;;;5058659;28;20029;-80
2022/04/28 08:01:22;;;;;;;10.32;5.72;;;14.20;89.60;;;;;;5069133;28;20020;-80
2022/04/28 08:03:49;;;;;;;11.00;6.22;;;14.30;88.60;;;;;;5062363;28;20642;-80
2022/04/28 08:06:15;;;;;;;8.27;5.28;;;14.40;88.70;;;;;;5068807;28;20021;-80
2022/04/28 08:08:41;;;;;;;11.35;5.95;;;14.50;86.60;;;;;;5069650;28;20051;-80
2022/04/28 08:11:07;;;;;;;7.88;5.90;;;14.60;87.10;;;;;;5070100;28;20070;-80
2022/04/28 08:13:32;;;;;;;9.00;5.72;;;14.70;86.50;;;;;;5068480;28;20024;-80
2022/04/28 08:15:58;;;;;;;8.05;5.93;;;14.70;85.00;;;;;;5063131;28;20028;-80
2022/04/28 08:18:25;;;;;;;12.95;6.80;;;14.80;87.70;;;;;;5066710;28;20028;-80
2022/04/28 08:20:50;;;;;;;8.93;6.22;;;15.00;85.90;;;;;;5062168;28;20485;-80
2022/04/28 08:23:16;;;;;;;12.50;6.13;;;15.10;85.40;;;;;;5063584;28;20021;-80
2022/04/28 08:25:41;;;;;;;8.05;5.18;;;15.20;84.90;;;;;;5068510;28;20033;-80
2022/04/28 08:28:07;;;;;;;9.35;5.15;;;15.20;84.70;;;;;;5065748;28;20028;-80
2022/04/28 08:30:32;;;;;;;10.55;5.90;;;15.30;85.80;;;;;;5069400;28;20021;-80
2022/04/28 08:32:59;;;;;;;11.10;6.80;;;15.40;83.10;;;;;;5069335;28;20615;-80
2022/04/28 08:35:25;;;;;;;7.18;5.65;;;15.40;83.60;;;;;;5064138;28;20078;-80
2022/04/28 08:37:51;;;;;;;11.15;6.68;;;15.50;81.80;;;;;;5068806;28;20052;-80
2022/04/28 08:40:17;;;;;;;6.82;5.28;;;15.50;83.70;;;;;;5065934;28;20068;-80
2022/04/28 08:42:44;;;;;;;7.95;5.75;;;15.60;82.60;;;;;;5049965;28;20032;-79
2022/04/28 08:45:10;;;;;;;10.10;5.18;;;15.60;82.40;;;;;;5061721;28;20474;-80
2022/04/28 08:47:36;;;;;;;8.63;5.82;;;15.80;82.60;;;;;;5068728;28;20016;-80
2022/04/28 08:50:02;;;;;;;10.27;5.45;;;15.90;80.70;;;;;;5068014;28;20032;-80
2022/04/28 08:52:27;;;;;;;8.00;5.53;;;16.10;80.60;;;;;;5051361;28;20853;-80
2022/04/28 08:54:54;;;;;;;10.52;5.82;;;16.20;82.00;;;;;;5060709;28;20032;-80
2022/04/28 08:57:22;;;;;;;7.32;4.90;;;16.30;79.10;;;;;;5067495;28;20021;-80
2022/04/28 08:59:50;;;;;;;9.93;6.35;;;16.40;79.20;;;;;;5063788;28;20099;-80
2022/04/28 09:02:23;;;;;;;9.18;6.22;;;16.50;78.70;;;;;;5051812;28;20554;-80
2022/04/28 09:04:48;;;;;;;9.68;5.30;;;16.60;78.20;;;;;;5068845;28;20086;-80
2022/04/28 09:07:14;;;;;;;9.48;6.28;;;16.50;80.30;;;;;;5066981;28;20444;-80
2022/04/28 09:09:39;;;;;;;10.40;6.20;;;16.60;78.60;;;;;;5068162;28;20037;-80
2022/04/28 09:12:06;;;;;;;9.85;5.75;;;16.70;78.60;;;;;;5066095;28;20420;-80
2022/04/28 09:14:32;;;;;;;9.02;5.75;;;16.80;78.20;;;;;;5067733;28;20031;-80
2022/04/28 09:17:03;;;;;;;18.88;6.30;;;17.00;80.20;;;;;;5067113;28;20028;-80
2022/04/28 09:19:34;;;;;;;8.43;6.07;;;17.10;77.40;;;;;;5067539;28;20525;-81
2022/04/28 09:22:09;;;;;;;24.27;9.52;;;17.20;80.50;;;;;;5068284;28;20428;-80
2022/04/28 09:24:36;;;;;;;56.15;9.40;;;17.30;76.20;;;;;;5064491;28;20025;-80
2022/04/28 09:27:02;;;;;;;8.73;6.28;;;17.50;77.70;;;;;;5062149;28;20036;-80
2022/04/28 09:29:30;;;;;;;17.15;6.90;;;17.70;75.30;;;;;;5060067;28;20021;-81
2022/04/28 09:31:56;;;;;;;12.60;5.72;;;17.90;74.20;;;;;;5067591;28;20028;-80
2022/04/28 09:34:23;;;;;;;6.88;6.07;;;18.00;73.60;;;;;;5068217;28;20504;-80
2022/04/28 09:36:50;;;;;;;7.82;5.70;;;18.10;73.70;;;;;;5065393;28;20099;-80
2022/04/28 09:44:53;;;;;;;8.63;6.10;;;18.20;71.80;;;;;;5068018;28;20538;-78
2022/04/28 09:47:19;;;;;;;9.52;5.78;;;18.30;72.30;;;;;;5064801;28;20477;-81
2022/04/28 09:49:52;;;;;;;10.85;6.38;;;18.40;71.00;;;;;;5059501;28;20033;-81
2022/04/28 09:52:23;;;;;;;;;;;18.50;69.00;;;;;;5046578;28;20375;-81
2022/04/28 09:54:50;;;;;;;8.07;6.43;;;18.60;69.80;;;;;;5047543;28;19905;-80
2022/04/28 09:57:17;;;;;;;9.07;6.72;;;18.60;68.70;;;;;;5062787;28;20029;-80
2022/04/28 09:59:43;;;;;;;8.63;5.82;;;18.60;66.60;;;;;;5066822;28;20782;-80
2022/04/28 10:02:15;;;;;;;9.30;6.25;;;18.60;66.40;;;;;;5067194;28;20020;-80
2022/04/28 10:04:41;;;;;;;9.45;6.47;;;18.60;66.10;;;;;;5067647;28;20127;-81
2022/04/28 10:07:08;;;;;;;10.80;6.63;;;18.70;66.30;;;;;;5061862;28;20051;-82
2022/04/28 10:09:35;;;;;;;10.30;6.85;;;18.80;68.40;;;;;;5065737;28;20043;-81
2022/04/28 10:12:02;;;;;;;8.30;6.30;;;18.90;63.50;;;;;;5067444;28;20043;-81
2022/04/28 10:14:28;;;;;;;9.77;6.78;;;18.90;65.00;;;;;;5065874;28;20020;-81
2022/04/28 10:16:55;;;;;;;8.65;6.72;;;19.00;65.90;;;;;;5058744;28;20028;-80
2022/04/28 10:19:30;;;;;;;10.55;7.18;;;19.10;64.80;;;;;;5065803;28;20024;-78
2022/04/28 10:22:03;;;;;;;8.57;6.50;;;18.90;63.70;;;;;;5068660;28;20165;-78
2022/04/28 10:32:58;;;;;;;9.73;6.85;;;19.20;65.70;;;;;;5051568;28;20582;-80
2022/04/28 10:35:53;;;;;;;9.15;7.07;;;19.30;66.60;;;;;;5050362;28;20451;-82
2022/04/28 10:38:34;;;;;;;8.75;6.97;;;19.40;65.30;;;;;;5069756;28;20020;-80
2022/04/28 10:41:08;;;;;;;9.95;6.70;;;19.50;63.40;;;;;;5071160;28;20383;-80
2022/04/28 10:43:34;;;;;;;11.75;6.38;;;19.40;64.00;;;;;;5071099;28;20112;-78
2022/04/28 10:46:08;;;;;;;11.75;5.93;;;19.50;68.30;;;;;;5070476;28;20185;-80
2022/04/28 10:48:38;;;;;;;8.93;6.70;;;19.50;66.40;;;;;;5070535;28;20115;-80
2022/04/28 10:51:22;;;;;;;9.57;6.70;;;19.50;65.70;;;;;;5070855;28;20024;-80
2022/04/28 10:54:09;;;;;;;10.13;6.97;;;19.60;66.20;;;;;;5070010;28;20492;-81
2022/04/28 10:56:54;;;;;;;8.88;7.15;;;19.60;64.60;;;;;;5069126;28;20038;-80
2022/04/28 10:59:25;;;;;;;9.90;6.70;;;19.50;64.30;;;;;;5067665;28;20039;-80
2022/04/28 11:01:51;;;;;;;11.13;6.47;;;19.50;65.70;;;;;;5070450;28;20024;-80
2022/04/28 11:04:21;;;;;;;10.75;7.18;;;19.60;65.50;;;;;;5070809;28;20036;-80
2022/04/28 11:06:52;;;;;;;8.23;7.13;;;19.70;63.30;;;;;;5070016;28;20062;-80
2022/04/28 11:09:41;;;;;;;10.93;7.95;;;19.90;63.30;;;;;;5070519;28;20036;-81
2022/04/28 11:12:11;;;;;;;11.52;7.40;;;19.90;64.90;;;;;;5069571;28;20035;-80
2022/04/28 11:14:45;;;;;;;9.32;7.25;;;19.80;63.00;;;;;;5066328;28;20033;-81
2022/04/28 11:17:12;;;;;;;10.68;7.60;;;20.00;63.50;;;;;;5060629;28;20022;-81
2022/04/28 11:19:37;;;;;;;12.07;7.80;;;20.10;62.50;;;;;;5064117;28;20016;-81
2022/04/28 11:22:03;;;;;;;8.27;7.40;;;20.00;63.20;;;;;;5069847;28;20025;-81
2022/04/28 11:24:30;;;;;;;12.23;6.60;;;20.00;62.70;;;;;;5070950;28;20028;-81
2022/04/28 11:26:59;;;;;;;8.30;6.22;;;20.10;63.10;;;;;;5069504;28;20441;-81
2022/04/28 11:29:26;;;;;;;9.43;7.32;;;20.20;64.70;;;;;;5068870;28;20508;-81
2022/04/28 11:31:53;;;;;;;11.50;7.43;;;20.20;62.90;;;;;;5070351;28;20441;-81
2022/04/28 11:34:19;;;;;;;9.95;7.28;;;20.00;63.00;;;;;;5069280;28;20030;-81
2022/04/28 11:36:45;;;;;;;9.23;7.78;;;19.80;63.30;;;;;;5069156;28;20028;-80
2022/04/28 11:39:11;;;;;;;8.25;5.93;;;19.80;64.60;;;;;;5067922;28;20039;-82
2022/04/28 11:41:42;;;;;;;9.57;7.03;;;19.90;63.20;;;;;;5068168;28;20078;-81
2022/04/28 11:44:10;;;;;;;8.20;6.32;;;20.10;64.30;;;;;;5069656;28;20024;-81
2022/04/28 11:46:48;;;;;;;9.60;7.25;;;20.30;64.40;;;;;;5065730;28;20016;-81
2022/04/28 11:49:14;;;;;;;11.70;6.22;;;20.40;64.20;;;;;;5060557;28;20048;-81
2022/04/28 11:51:40;;;;;;;9.30;7.18;;;20.50;63.80;;;;;;5068984;28;20086;-81
2022/04/28 11:54:22;;;;;;;10.05;6.50;;;20.60;63.30;;;;;;5069651;28;20029;-82
2022/04/28 11:56:48;;;;;;;;;;;20.90;60.80;;;;;;5067433;28;20028;-81
2022/04/28 11:59:13;;;;;;;8.10;6.60;;;21.00;61.20;;;;;;5062803;28;19904;-81
2022/04/28 12:01:39;;;;;;;8.55;7.28;;;21.10;61.10;;;;;;5069232;28;20075;-81
2022/04/28 12:04:05;;;;;;;8.13;6.30;;;21.10;62.40;;;;;;5069180;28;20051;-81
2022/04/28 12:06:31;;;;;;;9.15;7.15;;;21.20;61.90;;;;;;5052090;28;20089;-81
2022/04/28 12:08:58;;;;;;;11.55;7.50;;;21.10;59.70;;;;;;5069521;28;20060;-81
2022/04/28 12:14:24;;;;;;;11.63;5.43;;;21.10;60.00;;;;;;5068977;28;20031;-81
2022/04/28 12:19:54;;;;;;;10.10;6.20;;;21.00;59.10;;;;;;5068880;28;20032;-80
2022/04/28 12:22:27;;;;;;;8.40;6.20;;;20.70;60.20;;;;;;5064146;28;20032;-80
2022/04/28 12:24:52;;;;;;;10.52;6.90;;;20.40;60.80;;;;;;5069630;28;20465;-80
2022/04/28 12:27:18;;;;;;;10.88;6.97;;;20.20;60.70;;;;;;5053506;28;20044;-81
2022/04/28 12:29:52;;;;;;;7.15;6.00;;;20.00;61.20;;;;;;5063872;28;20135;-81
2022/04/28 12:32:18;;;;;;;8.07;6.55;;;19.80;62.00;;;;;;5063747;28;20025;-80
2022/04/28 12:34:44;;;;;;;7.22;6.00;;;19.70;61.50;;;;;;5069506;28;20028;-80
2022/04/28 12:37:10;;;;;;;8.85;6.00;;;19.70;61.70;;;;;;5066666;28;20154;-81
2022/04/28 12:39:59;;;;;;;8.30;6.18;;;19.60;63.20;;;;;;5059537;28;20028;-81
2022/04/28 12:42:44;;;;;;;7.78;5.75;;;19.60;62.80;;;;;;5061923;28;20031;-81
2022/04/28 12:45:10;;;;;;;10.32;6.25;;;19.60;64.80;;;;;;5067571;28;20021;-80
2022/04/28 12:47:38;;;;;;;8.75;4.88;;;19.80;62.70;;;;;;5066659;28;20032;-80
2022/04/28 12:50:23;;;;;;;8.90;6.10;;;20.00;63.70;;;;;;5069333;28;20077;-79
2022/04/28 12:52:50;;;;;;;8.25;6.50;;;20.20;60.40;;;;;;5068517;28;20028;-80
2022/04/28 12:55:18;;;;;;;9.15;6.40;;;20.10;60.10;;;;;;5066946;28;20115;-79
2022/04/28 12:57:45;;;;;;;10.05;6.88;;;20.00;60.20;;;;;;5068008;28;20029;-80
2022/04/28 13:00:11;;;;;;;9.35;6.15;;;19.90;60.80;;;;;;5060481;28;20067;-79
2022/04/28 13:02:37;;;;;;;8.50;5.82;;;19.90;60.40;;;;;;5049376;28;20048;-80
2022/04/28 13:05:14;;;;;;;6.20;5.30;;;19.80;60.20;;;;;;5066432;28;20038;-80
2022/04/28 13:07:41;;;;;;;8.25;5.22;;;20.00;60.20;;;;;;5067357;28;20058;-80
2022/04/28 13:10:07;;;;;;;11.57;6.15;;;20.40;60.10;;;;;;5068918;28;20032;-81
2022/04/28 13:12:33;;;;;;;7.55;5.47;;;20.70;60.30;;;;;;5069058;28;20028;-80
2022/04/28 13:15:01;;;;;;;8.65;5.85;;;20.90;60.30;;;;;;5065660;28;20106;-80
2022/04/28 13:17:27;;;;;;;8.95;6.05;;;21.10;58.60;;;;;;5067111;28;20448;-81
2022/04/28 13:19:53;;;;;;;7.78;6.15;;;21.20;58.20;;;;;;5067512;28;20046;-81
2022/04/28 13:22:19;;;;;;;10.55;5.65;;;21.20;58.60;;;;;;5068089;28;20127;-80